createdAt,value
2023-05-25T00:00:19.727Z,10.17
2023-05-25T00:02:48.545Z,10.16
2023-05-25T00:05:20.408Z,10.16
2023-05-25T00:07:49.022Z,10.16
2023-05-25T00:10:17.578Z,10.17
2023-05-25T00:12:46.133Z,10.15
2023-05-25T00:15:14.735Z,10.15
2023-05-25T00:17:44.881Z,10.15
2023-05-25T00:20:15.173Z,10.16
2023-05-25T00:22:47.817Z,10.16
2023-05-25T00:25:16.821Z,10.15
2023-05-25T00:27:45.489Z,10.13
2023-05-25T00:30:14.477Z,10.15
2023-05-25T00:32:43.199Z,10.17
2023-05-25T00:35:11.889Z,10.16
2023-05-25T00:37:40.436Z,10.18
2023-05-25T00:40:16.525Z,10.17
2023-05-25T00:42:46.301Z,10.18
2023-05-25T00:45:15.573Z,10.15
2023-05-25T00:47:45.613Z,10.15
2023-05-25T00:50:19.593Z,10.14
2023-05-25T00:52:49.448Z,10.12
2023-05-25T00:55:23.398Z,10.07
2023-05-25T00:57:57.289Z,10.08
2023-05-25T01:00:27.124Z,10.04
2023-05-25T01:02:59.487Z,10.04
2023-05-25T01:05:32.223Z,10.05
2023-05-25T01:08:06.362Z,10.04
2023-05-25T01:10:40.630Z,10.04
2023-05-25T01:13:12.789Z,10.04
2023-05-25T01:15:42.274Z,10.03
2023-05-25T01:18:15.210Z,10.02
2023-05-25T01:21:02.102Z,9.95
2023-05-25T01:23:38.118Z,9.97
2023-05-25T01:26:14.564Z,9.96
2023-05-25T01:28:51.695Z,9.95
2023-05-25T01:31:24.612Z,9.91
2023-05-25T01:33:55.281Z,9.89
2023-05-25T01:36:25.614Z,9.89
2023-05-25T01:38:55.060Z,9.83
2023-05-25T01:41:24.084Z,9.81
2023-05-25T01:43:54.318Z,9.79
2023-05-25T01:46:37.011Z,9.75
2023-05-25T01:49:18.118Z,9.68
2023-05-25T01:52:02.209Z,9.65
2023-05-25T01:54:40.000Z,9.67
2023-05-25T01:57:13.867Z,9.63
2023-05-25T01:59:46.969Z,9.60
2023-05-25T02:02:20.147Z,9.52
2023-05-25T02:04:50.874Z,9.50
2023-05-25T02:07:21.021Z,9.46
2023-05-25T02:09:50.306Z,9.45
2023-05-25T02:12:19.988Z,9.43
2023-05-25T02:14:49.563Z,9.40
2023-05-25T02:17:19.755Z,9.34
2023-05-25T02:19:53.144Z,9.36
2023-05-25T02:22:23.485Z,9.36
2023-05-25T02:24:52.071Z,9.33
2023-05-25T02:27:21.140Z,9.29
2023-05-25T02:29:50.673Z,9.28
2023-05-25T02:32:19.592Z,9.29
2023-05-25T02:34:48.773Z,9.26
2023-05-25T02:37:18.386Z,9.23
2023-05-25T02:39:49.431Z,9.22
2023-05-25T02:42:19.226Z,9.21
2023-05-25T02:44:48.740Z,9.20
2023-05-25T02:47:18.198Z,9.17
2023-05-25T02:49:47.372Z,9.14
2023-05-25T02:52:15.983Z,9.12
2023-05-25T02:54:45.205Z,9.08
2023-05-25T02:57:15.219Z,9.04
2023-05-25T02:59:44.347Z,9.03
2023-05-25T03:02:13.421Z,9.02
2023-05-25T03:04:42.167Z,8.98
2023-05-25T03:07:11.308Z,8.94
2023-05-25T03:09:40.617Z,8.94
2023-05-25T03:12:09.527Z,8.93
2023-05-25T03:14:40.006Z,8.92
2023-05-25T03:17:10.047Z,8.90
2023-05-25T03:19:39.258Z,8.89
2023-05-25T03:22:08.241Z,8.89
2023-05-25T03:24:41.502Z,8.90
2023-05-25T03:27:12.168Z,8.89
2023-05-25T03:29:42.582Z,8.88
2023-05-25T03:32:11.826Z,8.86
2023-05-25T03:34:41.418Z,8.84
2023-05-25T03:37:10.406Z,8.82
2023-05-25T03:39:39.002Z,8.80
2023-05-25T03:42:08.482Z,8.78
2023-05-25T03:44:37.932Z,8.76
2023-05-25T03:47:10.163Z,8.74
2023-05-25T03:49:38.716Z,8.74
2023-05-25T03:52:08.884Z,8.74
2023-05-25T03:54:37.536Z,8.71
2023-05-25T03:57:07.755Z,8.69
2023-05-25T03:59:36.847Z,8.70
2023-05-25T04:02:06.724Z,8.70
2023-05-25T04:04:38.567Z,8.70
2023-05-25T04:07:08.754Z,8.68
2023-05-25T04:09:38.943Z,8.67
2023-05-25T04:12:09.381Z,8.66
2023-05-25T04:14:38.760Z,8.64
2023-05-25T04:17:08.013Z,8.64
2023-05-25T04:19:39.434Z,8.64
2023-05-25T04:22:08.536Z,8.62
2023-05-25T04:24:37.522Z,8.60
2023-05-25T04:27:07.399Z,8.59
2023-05-25T04:29:37.447Z,8.58
2023-05-25T04:32:09.713Z,8.58
2023-05-25T04:34:40.163Z,8.62
2023-05-25T04:37:10.446Z,8.64
2023-05-25T04:39:39.070Z,8.64
2023-05-25T04:42:08.215Z,8.66
2023-05-25T04:44:37.973Z,8.67
2023-05-25T04:47:08.174Z,8.69
2023-05-25T04:49:37.404Z,8.71
2023-05-25T04:52:09.162Z,8.75
2023-05-25T04:54:39.483Z,8.77
2023-05-25T04:57:08.134Z,8.79
2023-05-25T04:59:36.754Z,8.84
2023-05-25T05:02:05.633Z,8.87
2023-05-25T05:04:36.609Z,8.92
2023-05-25T05:07:08.220Z,8.96
2023-05-25T05:09:37.269Z,9.01
2023-05-25T05:12:06.541Z,9.02
2023-05-25T05:14:35.938Z,9.08
2023-05-25T05:17:05.257Z,9.11
2023-05-25T05:19:34.311Z,9.17
2023-05-25T05:22:02.966Z,9.21
2023-05-25T05:24:32.947Z,9.26
2023-05-25T05:27:04.608Z,9.29
2023-05-25T05:29:35.002Z,9.35
2023-05-25T05:32:03.526Z,9.39
2023-05-25T05:34:32.812Z,9.44
2023-05-25T05:37:02.647Z,9.50
2023-05-25T05:39:32.640Z,9.57
2023-05-25T05:42:01.551Z,9.60
2023-05-25T05:44:30.103Z,9.67
2023-05-25T05:47:01.832Z,9.73
2023-05-25T05:49:31.410Z,9.76
2023-05-25T05:52:00.362Z,9.82
2023-05-25T05:54:29.422Z,9.88
2023-05-25T05:56:59.523Z,9.95
2023-05-25T05:59:27.959Z,9.98
2023-05-25T06:01:56.534Z,10.04
2023-05-25T06:04:28.677Z,10.09
2023-05-25T06:06:58.606Z,10.17
2023-05-25T06:09:27.461Z,10.23
2023-05-25T06:11:56.768Z,10.27
2023-05-25T06:14:28.576Z,10.33
2023-05-25T06:16:57.658Z,10.39
2023-05-25T06:19:26.319Z,10.44
2023-05-25T06:21:55.323Z,10.50
2023-05-25T06:24:24.008Z,10.57
2023-05-25T06:26:52.642Z,10.63
2023-05-25T06:29:21.367Z,10.69
2023-05-25T06:31:51.379Z,10.75
2023-05-25T06:34:20.021Z,10.81
2023-05-25T06:36:48.893Z,10.87
2023-05-25T06:39:17.914Z,10.94
2023-05-25T06:41:46.614Z,10.99
2023-05-25T06:44:16.591Z,11.05
2023-05-25T06:46:45.258Z,11.12
2023-05-25T06:49:15.148Z,11.19
2023-05-25T06:51:43.712Z,11.24
2023-05-25T06:54:15.001Z,11.31
2023-05-25T06:56:43.587Z,11.40
2023-05-25T06:59:12.429Z,11.46
2023-05-25T07:01:41.221Z,11.53
2023-05-25T07:04:09.781Z,11.59
2023-05-25T07:06:40.048Z,11.68
2023-05-25T07:09:08.732Z,11.76
2023-05-25T07:11:37.741Z,11.82
2023-05-25T07:14:06.259Z,11.89
2023-05-25T07:16:34.886Z,11.93
2023-05-25T07:19:03.720Z,11.99
2023-05-25T07:21:34.254Z,12.03
2023-05-25T07:24:05.091Z,12.15
2023-05-25T07:26:36.564Z,12.23
2023-05-25T07:29:06.137Z,12.30
2023-05-25T07:31:36.513Z,12.37
2023-05-25T07:34:06.004Z,12.42
2023-05-25T07:36:34.502Z,12.51
2023-05-25T07:39:04.717Z,12.58
2023-05-25T07:41:33.996Z,12.67
2023-05-25T07:44:03.368Z,12.73
2023-05-25T07:46:32.094Z,12.80
2023-05-25T07:49:03.438Z,12.90
2023-05-25T07:51:33.008Z,12.91
2023-05-25T07:54:01.564Z,12.95
2023-05-25T07:56:31.717Z,12.96
2023-05-25T07:59:01.057Z,13.01
2023-05-25T08:01:30.060Z,13.10
2023-05-25T08:03:58.758Z,13.15
2023-05-25T08:06:27.450Z,13.22
2023-05-25T08:08:55.963Z,13.25
2023-05-25T08:11:26.913Z,13.24
2023-05-25T08:13:56.867Z,13.26
2023-05-25T08:16:25.618Z,13.34
2023-05-25T08:18:54.196Z,13.36
2023-05-25T08:21:23.261Z,13.45
2023-05-25T08:23:52.344Z,13.48
2023-05-25T08:28:58.980Z,13.55
2023-05-25T08:31:28.024Z,13.57
2023-05-25T08:33:56.802Z,13.60
2023-05-25T08:36:26.104Z,13.63
2023-05-25T08:38:55.033Z,13.67
2023-05-25T08:41:23.702Z,13.68
2023-05-25T08:43:52.516Z,13.75
2023-05-25T08:46:32.231Z,13.83
2023-05-25T08:49:07.021Z,13.92
2023-05-25T08:51:39.486Z,13.99
2023-05-25T08:54:11.339Z,14.03
2023-05-25T08:56:51.378Z,14.11
2023-05-25T08:59:33.515Z,14.16
2023-05-25T09:02:22.970Z,14.19
2023-05-25T09:04:51.773Z,14.24
2023-05-25T09:07:21.795Z,14.26
2023-05-25T09:09:51.138Z,14.29
2023-05-25T09:12:21.704Z,14.32
2023-05-25T09:14:50.411Z,14.33
2023-05-25T09:17:21.451Z,14.32
2023-05-25T09:19:51.872Z,14.37
2023-05-25T09:22:21.124Z,14.38
2023-05-25T09:24:50.409Z,14.40
2023-05-25T09:27:21.910Z,14.42
2023-05-25T09:29:51.645Z,14.45
2023-05-25T09:32:24.103Z,14.47
2023-05-25T09:34:53.519Z,14.47
2023-05-25T09:37:22.907Z,14.47
2023-05-25T09:39:53.370Z,14.53
2023-05-25T09:42:22.526Z,14.54
2023-05-25T09:44:51.497Z,14.59
2023-05-25T09:47:22.866Z,14.60
2023-05-25T09:49:51.593Z,14.61
2023-05-25T09:52:21.062Z,14.65
2023-05-25T09:54:52.087Z,14.64
2023-05-25T09:57:22.205Z,14.68
2023-05-25T09:59:50.703Z,14.76
2023-05-25T10:02:20.701Z,14.81
2023-05-25T10:04:49.753Z,14.86
2023-05-25T10:07:18.944Z,14.91
2023-05-25T10:09:51.003Z,14.99
2023-05-25T10:12:22.146Z,14.99
2023-05-25T10:14:54.290Z,15.03
2023-05-25T10:17:25.704Z,15.09
2023-05-25T10:20:00.851Z,15.13
2023-05-25T10:22:38.010Z,15.18
2023-05-25T10:25:15.793Z,15.21
2023-05-25T10:30:28.251Z,15.31
2023-05-25T10:32:58.880Z,15.34
2023-05-25T10:35:30.042Z,15.43
2023-05-25T10:38:01.802Z,15.45
2023-05-25T10:40:32.941Z,15.53
2023-05-25T10:43:02.151Z,15.58
2023-05-25T10:45:31.684Z,15.58
2023-05-25T10:48:01.661Z,15.62
2023-05-25T10:50:37.072Z,15.74
2023-05-25T10:53:09.746Z,15.77
2023-05-25T10:55:46.141Z,15.79
2023-05-25T10:58:17.755Z,15.81
2023-05-25T11:01:00.079Z,15.84
2023-05-25T11:03:54.932Z,15.88
2023-05-25T11:06:25.484Z,15.97
2023-05-25T11:08:57.473Z,16.07
2023-05-25T11:12:06.647Z,16.09
2023-05-25T11:14:38.402Z,16.18
2023-05-25T11:17:10.862Z,16.25
2023-05-25T11:19:51.507Z,16.33
2023-05-25T11:22:23.530Z,16.34
2023-05-25T11:24:53.685Z,16.43
2023-05-25T11:27:26.535Z,16.46
2023-05-25T11:29:57.945Z,16.50
2023-05-25T11:32:28.012Z,16.60
2023-05-25T11:34:59.489Z,16.62
2023-05-25T11:37:31.820Z,16.63
2023-05-25T11:40:00.652Z,16.64
2023-05-25T11:42:32.346Z,16.70
2023-05-25T11:45:04.131Z,16.75
2023-05-25T11:47:34.643Z,16.77
2023-05-25T11:50:04.727Z,16.84
2023-05-25T11:52:34.080Z,16.83
2023-05-25T11:55:13.457Z,16.89
2023-05-25T11:57:44.542Z,16.90
2023-05-25T12:00:14.969Z,16.93
2023-05-25T12:02:43.739Z,17.08
2023-05-25T12:05:12.873Z,17.15
2023-05-25T12:07:46.888Z,17.22
2023-05-25T12:10:17.722Z,17.27
2023-05-25T12:12:50.183Z,17.29
2023-05-25T12:15:24.258Z,17.31
2023-05-25T12:17:54.760Z,17.38
2023-05-25T12:20:24.497Z,17.46
2023-05-25T12:22:53.578Z,17.52
2023-05-25T12:25:24.466Z,17.53
2023-05-25T12:28:13.712Z,17.63
2023-05-25T12:30:42.756Z,17.63
2023-05-25T12:33:15.750Z,17.66
2023-05-25T12:35:49.263Z,17.71
2023-05-25T12:38:21.637Z,17.73
2023-05-25T12:41:07.735Z,17.84
2023-05-25T12:43:44.001Z,17.87
2023-05-25T12:46:12.760Z,17.96
2023-05-25T12:48:41.942Z,18.03
2023-05-25T12:51:12.127Z,18.14
2023-05-25T12:53:52.693Z,18.21
2023-05-25T12:56:22.724Z,18.24
2023-05-25T12:58:53.393Z,18.29
2023-05-25T13:01:23.133Z,18.32
2023-05-25T13:03:51.754Z,18.39
2023-05-25T13:06:20.210Z,18.53
2023-05-25T13:08:49.261Z,18.63
2023-05-25T13:11:17.794Z,18.77
2023-05-25T13:13:46.289Z,18.73
2023-05-25T13:16:16.934Z,18.71
2023-05-25T13:18:45.500Z,18.86
2023-05-25T13:21:14.560Z,18.98
2023-05-25T13:23:43.753Z,19.00
2023-05-25T13:26:13.140Z,19.05
2023-05-25T13:28:42.402Z,19.12
2023-05-25T13:31:10.911Z,19.17
2023-05-25T13:33:43.416Z,19.23
2023-05-25T13:36:11.910Z,19.28
2023-05-25T13:38:40.473Z,19.36
2023-05-25T13:41:09.481Z,19.42
2023-05-25T13:43:38.643Z,19.47
2023-05-25T13:46:08.816Z,19.55
2023-05-25T13:48:47.383Z,19.65
2023-05-25T13:51:17.638Z,19.73
2023-05-25T13:53:46.808Z,19.77
2023-05-25T13:56:15.379Z,19.85
2023-05-25T13:58:44.383Z,19.94
2023-05-25T14:01:13.617Z,19.97
2023-05-25T14:03:44.747Z,20.02
2023-05-25T14:06:13.499Z,20.07
2023-05-25T14:08:41.941Z,20.14
2023-05-25T14:11:10.505Z,20.24
2023-05-25T14:13:39.895Z,20.26
2023-05-25T14:16:09.550Z,20.33
2023-05-25T14:18:38.084Z,20.39
2023-05-25T14:21:08.414Z,20.47
2023-05-25T14:23:38.327Z,20.62
2023-05-25T14:26:07.038Z,20.67
2023-05-25T14:28:36.839Z,20.77
2023-05-25T14:31:06.407Z,20.85
2023-05-25T14:33:34.865Z,20.92
2023-05-25T14:36:03.993Z,20.99
2023-05-25T14:38:34.331Z,21.12
2023-05-25T14:41:03.022Z,21.21
2023-05-25T14:43:31.937Z,21.31
2023-05-25T14:46:00.858Z,21.32
2023-05-25T14:48:29.974Z,21.38
2023-05-25T14:51:00.284Z,21.43
2023-05-25T14:53:29.446Z,21.53
2023-05-25T14:56:00.176Z,21.58
2023-05-25T14:58:28.941Z,21.65
2023-05-25T15:00:58.581Z,21.77
2023-05-25T15:03:27.907Z,21.89
2023-05-25T15:05:56.570Z,21.86
2023-05-25T15:08:25.061Z,21.98
2023-05-25T15:10:54.030Z,22.03
2023-05-25T15:13:24.033Z,22.13
2023-05-25T15:15:57.241Z,22.24
2023-05-25T15:18:26.010Z,22.31
2023-05-25T15:20:54.531Z,22.30
2023-05-25T15:23:23.101Z,22.36
2023-05-25T15:25:51.618Z,22.40
2023-05-25T15:28:20.082Z,22.38
2023-05-25T15:30:50.022Z,22.38
2023-05-25T15:33:19.344Z,22.33
2023-05-25T15:35:47.907Z,22.37
2023-05-25T15:38:16.889Z,22.39
2023-05-25T15:40:45.585Z,22.32
2023-05-25T15:43:14.761Z,22.30
2023-05-25T15:45:44.414Z,22.19
2023-05-25T15:48:15.100Z,22.16
2023-05-25T15:50:43.722Z,22.19
2023-05-25T15:53:12.417Z,22.18
2023-05-25T15:55:40.997Z,22.20
2023-05-25T15:58:09.558Z,22.24
2023-05-25T16:00:38.074Z,22.20
2023-05-25T16:03:06.632Z,22.20
2023-05-25T16:05:37.297Z,22.09
2023-05-25T16:08:07.210Z,22.00
2023-05-25T16:10:36.667Z,21.99
2023-05-25T16:13:05.581Z,22.02
2023-05-25T16:15:34.538Z,21.95
2023-05-25T16:18:03.054Z,22.00
2023-05-25T16:20:31.594Z,22.05
2023-05-25T16:23:01.652Z,22.05
2023-05-25T16:25:30.910Z,22.03
2023-05-25T16:27:59.918Z,22.08
2023-05-25T16:30:28.425Z,22.10
2023-05-25T16:32:56.882Z,22.12
2023-05-25T16:35:25.600Z,22.17
2023-05-25T16:37:54.034Z,22.16
2023-05-25T16:40:23.937Z,22.21
2023-05-25T16:42:52.436Z,22.28
2023-05-25T16:45:21.616Z,22.32
2023-05-25T16:47:53.337Z,22.41
2023-05-25T16:50:21.821Z,22.40
2023-05-25T16:52:50.470Z,22.44
2023-05-25T16:55:18.980Z,22.57
2023-05-25T16:57:49.456Z,22.75
2023-05-25T17:00:19.133Z,22.92
2023-05-25T17:02:47.719Z,23.04
2023-05-25T17:05:16.318Z,23.14
2023-05-25T17:07:44.846Z,23.18
2023-05-25T17:10:13.671Z,23.24
2023-05-25T17:12:42.149Z,23.36
2023-05-25T17:15:16.632Z,23.36
2023-05-25T17:17:45.797Z,23.31
2023-05-25T17:20:14.394Z,23.16
2023-05-25T17:22:43.026Z,23.17
2023-05-25T17:25:11.668Z,23.03
2023-05-25T17:27:43.071Z,22.96
2023-05-25T17:30:14.376Z,22.85
2023-05-25T17:32:42.999Z,22.77
2023-05-25T17:35:11.879Z,22.70
2023-05-25T17:37:40.366Z,22.61
2023-05-25T17:40:11.864Z,22.47
2023-05-25T17:42:40.841Z,22.41
2023-05-25T17:45:14.038Z,22.35
2023-05-25T17:47:42.589Z,22.28
2023-05-25T17:50:11.867Z,22.13
2023-05-25T17:52:40.322Z,22.07
2023-05-25T17:55:10.679Z,21.88
2023-05-25T17:57:39.227Z,21.73
2023-05-25T18:00:14.758Z,21.58
2023-05-25T18:02:43.522Z,21.41
2023-05-25T18:05:12.131Z,21.43
2023-05-25T18:07:41.086Z,21.37
2023-05-25T18:10:11.011Z,21.22
2023-05-25T18:12:39.594Z,21.14
2023-05-25T18:15:10.333Z,21.03
2023-05-25T18:17:41.359Z,20.92
2023-05-25T18:20:12.296Z,20.77
2023-05-25T18:22:42.300Z,20.77
2023-05-25T18:25:11.553Z,20.64
2023-05-25T18:27:40.067Z,20.49
2023-05-25T18:30:11.650Z,20.51
2023-05-25T18:32:41.567Z,20.43
2023-05-25T18:35:10.653Z,20.32
2023-05-25T18:37:40.430Z,20.19
2023-05-25T18:40:13.502Z,20.12
2023-05-25T18:42:41.988Z,20.03
2023-05-25T18:45:11.630Z,19.91
2023-05-25T18:47:41.784Z,19.80
2023-05-25T18:50:12.812Z,19.80
2023-05-25T18:52:41.742Z,19.66
2023-05-25T18:55:11.222Z,19.61
2023-05-25T18:57:39.959Z,19.41
2023-05-25T19:00:10.938Z,19.37
2023-05-25T19:02:41.336Z,19.19
2023-05-25T19:05:11.890Z,19.13
2023-05-25T19:07:54.776Z,19.05
2023-05-25T19:10:27.475Z,18.95
2023-05-25T19:12:56.213Z,18.90
2023-05-25T19:15:24.775Z,18.74
2023-05-25T19:17:55.253Z,18.69
2023-05-25T19:20:23.998Z,18.63
2023-05-25T19:22:52.635Z,18.56
2023-05-25T19:25:21.395Z,18.43
2023-05-25T19:27:49.782Z,18.34
2023-05-25T19:30:19.320Z,18.31
2023-05-25T19:32:48.254Z,18.23
2023-05-25T19:35:18.251Z,18.12
2023-05-25T19:37:47.320Z,18.03
2023-05-25T19:40:15.805Z,18.01
2023-05-25T19:42:44.312Z,17.98
2023-05-25T19:45:13.299Z,17.91
2023-05-25T19:47:41.870Z,17.84
2023-05-25T19:50:11.054Z,17.77
2023-05-25T19:52:41.754Z,17.76
2023-05-25T19:55:10.752Z,17.68
2023-05-25T19:57:39.547Z,17.63
2023-05-25T20:00:17.518Z,17.55
2023-05-25T20:02:55.087Z,17.50
2023-05-25T20:05:24.224Z,17.43
2023-05-25T20:07:55.933Z,17.38
2023-05-25T20:10:24.591Z,17.36
2023-05-25T20:12:53.081Z,17.26
2023-05-25T20:15:21.556Z,17.24
2023-05-25T20:17:50.145Z,17.13
2023-05-25T20:20:19.326Z,17.14
2023-05-25T20:22:48.408Z,17.11
2023-05-25T20:25:18.337Z,17.08
2023-05-25T20:27:46.808Z,17.05
2023-05-25T20:30:17.241Z,17.01
2023-05-25T20:32:45.840Z,16.93
2023-05-25T20:35:14.620Z,16.88
2023-05-25T20:37:43.267Z,16.82
2023-05-25T20:40:12.241Z,16.76
2023-05-25T20:42:42.179Z,16.76
2023-05-25T20:45:12.226Z,16.73
2023-05-25T20:47:41.612Z,16.70
2023-05-25T20:50:10.647Z,16.66
2023-05-25T20:52:39.130Z,16.62
2023-05-25T20:55:09.427Z,16.59
2023-05-25T20:57:38.302Z,16.54
2023-05-25T21:00:11.837Z,16.54
2023-05-25T21:02:40.607Z,16.46
2023-05-25T21:05:10.210Z,16.41
2023-05-25T21:07:38.885Z,16.37
2023-05-25T21:10:08.939Z,16.34
2023-05-25T21:12:37.419Z,16.32
2023-05-25T21:15:08.953Z,16.29
2023-05-25T21:17:38.693Z,16.23
2023-05-25T21:20:08.732Z,16.16
2023-05-25T21:22:37.465Z,16.17
2023-05-25T21:25:07.565Z,16.08
2023-05-25T21:27:36.118Z,16.10
2023-05-25T21:30:05.648Z,16.09
2023-05-25T21:32:35.819Z,16.12
2023-05-25T21:35:04.391Z,16.10
2023-05-25T21:37:33.342Z,16.00
2023-05-25T21:40:01.898Z,16.00
2023-05-25T21:42:30.564Z,15.99
2023-05-25T21:45:00.535Z,15.95
2023-05-25T21:47:29.467Z,15.98
2023-05-25T21:49:59.837Z,15.97
2023-05-25T21:52:28.355Z,15.90
2023-05-25T21:54:56.942Z,15.91
2023-05-25T21:57:25.393Z,15.89
2023-05-25T21:59:53.946Z,15.85
2023-05-25T22:02:23.417Z,15.78
2023-05-25T22:04:52.399Z,15.74
2023-05-25T22:07:22.416Z,15.71
2023-05-25T22:09:50.864Z,15.67
2023-05-25T22:12:21.044Z,15.59
2023-05-25T22:14:49.780Z,15.57
2023-05-25T22:17:19.165Z,15.52
2023-05-25T22:19:58.916Z,15.45
2023-05-25T22:22:37.412Z,15.44
2023-05-25T22:25:07.051Z,15.44
2023-05-25T22:27:35.837Z,15.38
2023-05-25T22:30:06.500Z,15.39
2023-05-25T22:32:35.561Z,15.38
2023-05-25T22:35:04.646Z,15.40
2023-05-25T22:37:33.841Z,15.40
2023-05-25T22:40:04.917Z,15.38
2023-05-25T22:42:33.572Z,15.31
2023-05-25T22:45:02.684Z,15.25
2023-05-25T22:47:32.287Z,15.20
2023-05-25T22:50:00.888Z,15.15
2023-05-25T22:52:29.307Z,15.13
2023-05-25T22:54:57.897Z,15.11
2023-05-25T22:57:28.066Z,15.05
2023-05-25T22:59:57.048Z,14.96
2023-05-25T23:02:26.020Z,14.95
2023-05-25T23:04:54.713Z,14.96
2023-05-25T23:07:23.742Z,14.91
2023-05-25T23:09:52.226Z,14.82
2023-05-25T23:12:21.813Z,14.75
2023-05-25T23:14:54.283Z,14.69
2023-05-25T23:17:23.586Z,14.64
2023-05-25T23:19:53.675Z,14.62
2023-05-25T23:22:22.877Z,14.55
2023-05-25T23:24:51.286Z,14.56
2023-05-25T23:27:20.434Z,14.55
2023-05-25T23:29:48.841Z,14.53
2023-05-25T23:32:19.305Z,14.51
2023-05-25T23:34:49.223Z,14.47
2023-05-25T23:37:18.288Z,14.41
2023-05-25T23:39:47.117Z,14.38
2023-05-25T23:42:16.877Z,14.36
2023-05-25T23:44:46.226Z,14.34
2023-05-25T23:47:15.051Z,14.31
2023-05-25T23:49:45.399Z,14.29
2023-05-25T23:52:13.946Z,14.23
2023-05-25T23:54:42.543Z,14.21
2023-05-25T23:57:11.024Z,14.17
2023-05-25T23:59:39.538Z,14.14
